sensor_id;sensor_type;location;lat;lon;timestamp;P1;durP1;ratioP1;P2;durP2;ratioP2
73951;SDS011;62304;47.662;18.324;2024-03-17T00:02:23;4.32;;;1.20;;
73951;SDS011;62304;47.662;18.324;2024-03-17T00:05:26;4.43;;;1.37;;
73951;SDS011;62304;47.662;18.324;2024-03-17T00:08:28;4.63;;;1.63;;
73951;SDS011;62304;47.662;18.324;2024-03-17T00:11:31;4.23;;;1.50;;
73951;SDS011;62304;47.662;18.324;2024-03-17T00:14:33;5.85;;;1.48;;
73951;SDS011;62304;47.662;18.324;2024-03-17T00:17:36;3.87;;;1.10;;
73951;SDS011;62304;47.662;18.324;2024-03-17T00:20:37;3.47;;;1.15;;
73951;SDS011;62304;47.662;18.324;2024-03-17T00:23:42;5.50;;;1.20;;
73951;SDS011;62304;47.662;18.324;2024-03-17T00:26:44;3.20;;;1.00;;
73951;SDS011;62304;47.662;18.324;2024-03-17T00:29:47;3.50;;;1.10;;
73951;SDS011;62304;47.662;18.324;2024-03-17T00:32:49;3.00;;;0.88;;
73951;SDS011;62304;47.662;18.324;2024-03-17T00:35:51;3.30;;;1.10;;
73951;SDS011;62304;47.662;18.324;2024-03-17T00:38:53;3.43;;;1.17;;
73951;SDS011;62304;47.662;18.324;2024-03-17T00:41:55;3.60;;;1.20;;
73951;SDS011;62304;47.662;18.324;2024-03-17T00:44:57;4.45;;;1.70;;
73951;SDS011;62304;47.662;18.324;2024-03-17T00:48:01;3.40;;;1.20;;
73951;SDS011;62304;47.662;18.324;2024-03-17T00:51:03;3.65;;;1.10;;
73951;SDS011;62304;47.662;18.324;2024-03-17T00:54:09;4.37;;;1.30;;
73951;SDS011;62304;47.662;18.324;2024-03-17T00:57:11;3.62;;;1.40;;
73951;SDS011;62304;47.662;18.324;2024-03-17T01:00:13;3.90;;;1.62;;
73951;SDS011;62304;47.662;18.324;2024-03-17T01:03:16;3.97;;;1.60;;
73951;SDS011;62304;47.662;18.324;2024-03-17T01:06:19;5.00;;;1.80;;
73951;SDS011;62304;47.662;18.324;2024-03-17T01:09:21;5.03;;;2.10;;
73951;SDS011;62304;47.662;18.324;2024-03-17T01:12:23;4.75;;;1.80;;
73951;SDS011;62304;47.662;18.324;2024-03-17T01:15:24;4.18;;;1.92;;
73951;SDS011;62304;47.662;18.324;2024-03-17T01:18:27;4.65;;;2.08;;
73951;SDS011;62304;47.662;18.324;2024-03-17T01:21:29;4.05;;;2.03;;
73951;SDS011;62304;47.662;18.324;2024-03-17T01:24:31;3.70;;;1.27;;
73951;SDS011;62304;47.662;18.324;2024-03-17T01:27:34;5.32;;;1.98;;
73951;SDS011;62304;47.662;18.324;2024-03-17T01:30:37;6.03;;;1.75;;
73951;SDS011;62304;47.662;18.324;2024-03-17T01:33:40;4.65;;;2.20;;
73951;SDS011;62304;47.662;18.324;2024-03-17T01:36:43;3.15;;;1.15;;
73951;SDS011;62304;47.662;18.324;2024-03-17T01:39:45;3.47;;;1.43;;
73951;SDS011;62304;47.662;18.324;2024-03-17T01:42:47;5.65;;;1.75;;
73951;SDS011;62304;47.662;18.324;2024-03-17T01:45:49;3.78;;;1.35;;
73951;SDS011;62304;47.662;18.324;2024-03-17T01:48:52;4.00;;;1.62;;
73951;SDS011;62304;47.662;18.324;2024-03-17T01:51:55;3.45;;;1.48;;
73951;SDS011;62304;47.662;18.324;2024-03-17T01:54:58;4.20;;;1.30;;
73951;SDS011;62304;47.662;18.324;2024-03-17T01:58:00;4.28;;;1.77;;
73951;SDS011;62304;47.662;18.324;2024-03-17T02:01:03;4.35;;;1.40;;
73951;SDS011;62304;47.662;18.324;2024-03-17T02:04:06;3.97;;;1.67;;
73951;SDS011;62304;47.662;18.324;2024-03-17T02:07:08;3.90;;;1.60;;
73951;SDS011;62304;47.662;18.324;2024-03-17T02:10:10;4.53;;;1.60;;
73951;SDS011;62304;47.662;18.324;2024-03-17T02:13:13;4.40;;;1.80;;
73951;SDS011;62304;47.662;18.324;2024-03-17T02:16:15;3.90;;;1.60;;
73951;SDS011;62304;47.662;18.324;2024-03-17T02:19:18;4.03;;;1.60;;
73951;SDS011;62304;47.662;18.324;2024-03-17T02:22:20;3.50;;;1.63;;
73951;SDS011;62304;47.662;18.324;2024-03-17T02:25:22;4.87;;;1.83;;
73951;SDS011;62304;47.662;18.324;2024-03-17T02:28:24;3.83;;;1.77;;
73951;SDS011;62304;47.662;18.324;2024-03-17T02:31:26;4.90;;;1.80;;
73951;SDS011;62304;47.662;18.324;2024-03-17T02:34:29;4.12;;;1.42;;
73951;SDS011;62304;47.662;18.324;2024-03-17T02:37:31;3.73;;;1.60;;
73951;SDS011;62304;47.662;18.324;2024-03-17T02:40:34;3.87;;;1.60;;
73951;SDS011;62304;47.662;18.324;2024-03-17T02:43:36;5.53;;;1.60;;
73951;SDS011;62304;47.662;18.324;2024-03-17T02:46:38;3.78;;;1.52;;
73951;SDS011;62304;47.662;18.324;2024-03-17T02:49:41;3.80;;;1.33;;
73951;SDS011;62304;47.662;18.324;2024-03-17T02:52:45;4.20;;;1.40;;
73951;SDS011;62304;47.662;18.324;2024-03-17T02:55:47;3.63;;;1.67;;
73951;SDS011;62304;47.662;18.324;2024-03-17T02:58:49;4.12;;;1.65;;
73951;SDS011;62304;47.662;18.324;2024-03-17T03:01:52;4.95;;;1.60;;
73951;SDS011;62304;47.662;18.324;2024-03-17T03:04:54;4.35;;;2.08;;
73951;SDS011;62304;47.662;18.324;2024-03-17T03:07:56;4.33;;;1.83;;
73951;SDS011;62304;47.662;18.324;2024-03-17T03:10:59;2.97;;;0.93;;
73951;SDS011;62304;47.662;18.324;2024-03-17T03:14:01;4.22;;;1.65;;
73951;SDS011;62304;47.662;18.324;2024-03-17T03:17:04;3.92;;;1.50;;
73951;SDS011;62304;47.662;18.324;2024-03-17T03:20:06;5.28;;;1.70;;
73951;SDS011;62304;47.662;18.324;2024-03-17T03:23:09;3.80;;;1.80;;
73951;SDS011;62304;47.662;18.324;2024-03-17T03:26:11;3.20;;;1.07;;
73951;SDS011;62304;47.662;18.324;2024-03-17T03:29:13;4.70;;;1.55;;
73951;SDS011;62304;47.662;18.324;2024-03-17T03:32:18;4.90;;;2.12;;
73951;SDS011;62304;47.662;18.324;2024-03-17T03:35:20;4.82;;;2.28;;
73951;SDS011;62304;47.662;18.324;2024-03-17T03:38:22;4.33;;;2.00;;
73951;SDS011;62304;47.662;18.324;2024-03-17T03:41:24;3.37;;;1.37;;
73951;SDS011;62304;47.662;18.324;2024-03-17T03:44:26;5.37;;;1.52;;
73951;SDS011;62304;47.662;18.324;2024-03-17T03:47:29;4.37;;;1.73;;
73951;SDS011;62304;47.662;18.324;2024-03-17T03:50:31;6.32;;;1.75;;
73951;SDS011;62304;47.662;18.324;2024-03-17T03:53:34;7.23;;;1.93;;
73951;SDS011;62304;47.662;18.324;2024-03-17T03:56:37;3.72;;;1.35;;
73951;SDS011;62304;47.662;18.324;2024-03-17T03:59:39;5.32;;;2.00;;
73951;SDS011;62304;47.662;18.324;2024-03-17T04:02:44;3.95;;;1.70;;
73951;SDS011;62304;47.662;18.324;2024-03-17T04:05:46;4.13;;;1.60;;
73951;SDS011;62304;47.662;18.324;2024-03-17T04:08:48;5.72;;;2.12;;
73951;SDS011;62304;47.662;18.324;2024-03-17T04:11:51;5.28;;;2.08;;
73951;SDS011;62304;47.662;18.324;2024-03-17T04:14:54;4.70;;;2.12;;
73951;SDS011;62304;47.662;18.324;2024-03-17T04:17:56;4.95;;;1.70;;
73951;SDS011;62304;47.662;18.324;2024-03-17T04:21:00;4.20;;;1.87;;
73951;SDS011;62304;47.662;18.324;2024-03-17T04:24:05;5.10;;;1.80;;
73951;SDS011;62304;47.662;18.324;2024-03-17T04:27:07;5.15;;;2.50;;
73951;SDS011;62304;47.662;18.324;2024-03-17T04:30:09;5.80;;;2.10;;
73951;SDS011;62304;47.662;18.324;2024-03-17T04:33:13;6.77;;;2.53;;
73951;SDS011;62304;47.662;18.324;2024-03-17T04:36:15;5.82;;;1.98;;
73951;SDS011;62304;47.662;18.324;2024-03-17T04:39:18;5.35;;;2.12;;
73951;SDS011;62304;47.662;18.324;2024-03-17T04:42:30;4.25;;;1.70;;
73951;SDS011;62304;47.662;18.324;2024-03-17T04:45:32;4.28;;;1.62;;
73951;SDS011;62304;47.662;18.324;2024-03-17T04:48:34;5.30;;;1.97;;
73951;SDS011;62304;47.662;18.324;2024-03-17T04:51:36;5.50;;;2.03;;
73951;SDS011;62304;47.662;18.324;2024-03-17T04:54:38;4.62;;;1.73;;
73951;SDS011;62304;47.662;18.324;2024-03-17T04:57:43;5.62;;;2.45;;
73951;SDS011;62304;47.662;18.324;2024-03-17T05:00:46;6.70;;;1.77;;
73951;SDS011;62304;47.662;18.324;2024-03-17T05:03:50;6.00;;;1.80;;
73951;SDS011;62304;47.662;18.324;2024-03-17T05:06:53;5.18;;;2.30;;
73951;SDS011;62304;47.662;18.324;2024-03-17T05:09:55;4.68;;;1.75;;
73951;SDS011;62304;47.662;18.324;2024-03-17T05:12:57;7.65;;;2.03;;
73951;SDS011;62304;47.662;18.324;2024-03-17T05:15:59;6.32;;;2.08;;
73951;SDS011;62304;47.662;18.324;2024-03-17T05:19:02;5.20;;;1.30;;
73951;SDS011;62304;47.662;18.324;2024-03-17T05:22:04;6.37;;;2.13;;
73951;SDS011;62304;47.662;18.324;2024-03-17T05:25:07;5.32;;;1.70;;
73951;SDS011;62304;47.662;18.324;2024-03-17T05:28:09;4.60;;;1.58;;
73951;SDS011;62304;47.662;18.324;2024-03-17T05:31:11;5.43;;;1.87;;
73951;SDS011;62304;47.662;18.324;2024-03-17T05:34:16;5.97;;;2.07;;
73951;SDS011;62304;47.662;18.324;2024-03-17T05:37:18;5.67;;;2.57;;
73951;SDS011;62304;47.662;18.324;2024-03-17T05:40:20;6.47;;;1.83;;
73951;SDS011;62304;47.662;18.324;2024-03-17T05:43:23;4.97;;;1.92;;
73951;SDS011;62304;47.662;18.324;2024-03-17T05:46:28;4.70;;;1.67;;
73951;SDS011;62304;47.662;18.324;2024-03-17T05:49:31;5.03;;;1.90;;
73951;SDS011;62304;47.662;18.324;2024-03-17T05:52:34;6.32;;;1.83;;
73951;SDS011;62304;47.662;18.324;2024-03-17T05:55:36;7.07;;;1.52;;
73951;SDS011;62304;47.662;18.324;2024-03-17T05:58:38;6.72;;;1.98;;
73951;SDS011;62304;47.662;18.324;2024-03-17T06:01:41;5.60;;;1.60;;
73951;SDS011;62304;47.662;18.324;2024-03-17T06:04:43;4.87;;;1.33;;
73951;SDS011;62304;47.662;18.324;2024-03-17T06:07:46;5.33;;;1.67;;
73951;SDS011;62304;47.662;18.324;2024-03-17T06:10:49;6.05;;;1.95;;
73951;SDS011;62304;47.662;18.324;2024-03-17T06:13:52;3.97;;;1.30;;
73951;SDS011;62304;47.662;18.324;2024-03-17T06:16:54;4.65;;;1.50;;
73951;SDS011;62304;47.662;18.324;2024-03-17T06:19:55;4.07;;;1.40;;
73951;SDS011;62304;47.662;18.324;2024-03-17T06:22:59;3.00;;;1.00;;
73951;SDS011;62304;47.662;18.324;2024-03-17T06:26:00;3.65;;;1.25;;
73951;SDS011;62304;47.662;18.324;2024-03-17T06:29:05;5.15;;;1.25;;
73951;SDS011;62304;47.662;18.324;2024-03-17T06:32:07;7.60;;;1.58;;
73951;SDS011;62304;47.662;18.324;2024-03-17T06:35:09;4.80;;;1.20;;
73951;SDS011;62304;47.662;18.324;2024-03-17T06:38:12;6.53;;;1.50;;
73951;SDS011;62304;47.662;18.324;2024-03-17T06:41:14;5.90;;;1.65;;
73951;SDS011;62304;47.662;18.324;2024-03-17T06:44:16;4.05;;;1.10;;
73951;SDS011;62304;47.662;18.324;2024-03-17T06:47:27;4.22;;;1.60;;
73951;SDS011;62304;47.662;18.324;2024-03-17T06:50:28;4.23;;;1.23;;
73951;SDS011;62304;47.662;18.324;2024-03-17T06:53:31;5.07;;;1.23;;
73951;SDS011;62304;47.662;18.324;2024-03-17T06:56:33;4.47;;;1.48;;
73951;SDS011;62304;47.662;18.324;2024-03-17T06:59:35;5.60;;;1.87;;
73951;SDS011;62304;47.662;18.324;2024-03-17T07:02:40;6.70;;;1.55;;
73951;SDS011;62304;47.662;18.324;2024-03-17T07:06:04;3.87;;;1.50;;
73951;SDS011;62304;47.662;18.324;2024-03-17T07:09:12;5.87;;;1.83;;
73951;SDS011;62304;47.662;18.324;2024-03-17T07:12:14;3.97;;;1.05;;
73951;SDS011;62304;47.662;18.324;2024-03-17T07:15:16;4.15;;;1.25;;
73951;SDS011;62304;47.662;18.324;2024-03-17T07:18:18;2.92;;;1.05;;
73951;SDS011;62304;47.662;18.324;2024-03-17T07:21:20;4.63;;;1.57;;
73951;SDS011;62304;47.662;18.324;2024-03-17T07:24:25;6.67;;;1.53;;
73951;SDS011;62304;47.662;18.324;2024-03-17T07:27:27;5.30;;;1.20;;
73951;SDS011;62304;47.662;18.324;2024-03-17T07:30:29;3.47;;;1.20;;
73951;SDS011;62304;47.662;18.324;2024-03-17T07:33:31;5.47;;;1.50;;
73951;SDS011;62304;47.662;18.324;2024-03-17T07:36:34;4.10;;;1.20;;
73951;SDS011;62304;47.662;18.324;2024-03-17T07:39:37;5.80;;;1.90;;
73951;SDS011;62304;47.662;18.324;2024-03-17T07:42:40;3.83;;;1.42;;
73951;SDS011;62304;47.662;18.324;2024-03-17T07:45:42;6.97;;;1.75;;
73951;SDS011;62304;47.662;18.324;2024-03-17T07:48:48;5.68;;;1.40;;
73951;SDS011;62304;47.662;18.324;2024-03-17T07:51:50;5.60;;;1.90;;
73951;SDS011;62304;47.662;18.324;2024-03-17T07:54:52;4.53;;;1.80;;
73951;SDS011;62304;47.662;18.324;2024-03-17T07:57:54;5.30;;;1.55;;
73951;SDS011;62304;47.662;18.324;2024-03-17T08:00:57;4.20;;;1.50;;
73951;SDS011;62304;47.662;18.324;2024-03-17T08:04:03;4.70;;;1.60;;
73951;SDS011;62304;47.662;18.324;2024-03-17T08:07:05;4.73;;;1.17;;
73951;SDS011;62304;47.662;18.324;2024-03-17T08:10:10;4.47;;;1.20;;
73951;SDS011;62304;47.662;18.324;2024-03-17T08:13:12;4.15;;;1.37;;
73951;SDS011;62304;47.662;18.324;2024-03-17T08:16:17;4.00;;;1.35;;
73951;SDS011;62304;47.662;18.324;2024-03-17T08:19:20;4.65;;;2.15;;
73951;SDS011;62304;47.662;18.324;2024-03-17T08:22:23;7.20;;;1.87;;
73951;SDS011;62304;47.662;18.324;2024-03-17T08:25:24;4.80;;;1.97;;
73951;SDS011;62304;47.662;18.324;2024-03-17T08:28:27;5.72;;;2.03;;
73951;SDS011;62304;47.662;18.324;2024-03-17T08:31:29;6.78;;;1.70;;
73951;SDS011;62304;47.662;18.324;2024-03-17T08:34:31;4.50;;;1.60;;
73951;SDS011;62304;47.662;18.324;2024-03-17T08:37:35;5.17;;;1.70;;
73951;SDS011;62304;47.662;18.324;2024-03-17T08:40:39;6.13;;;1.70;;
73951;SDS011;62304;47.662;18.324;2024-03-17T08:43:44;3.75;;;1.52;;
73951;SDS011;62304;47.662;18.324;2024-03-17T08:46:46;6.10;;;1.55;;
73951;SDS011;62304;47.662;18.324;2024-03-17T08:49:51;8.48;;;2.17;;
73951;SDS011;62304;47.662;18.324;2024-03-17T08:52:54;4.07;;;1.67;;
73951;SDS011;62304;47.662;18.324;2024-03-17T08:55:56;4.73;;;1.13;;
73951;SDS011;62304;47.662;18.324;2024-03-17T08:58:59;4.35;;;1.65;;
73951;SDS011;62304;47.662;18.324;2024-03-17T09:02:01;3.97;;;1.30;;
73951;SDS011;62304;47.662;18.324;2024-03-17T09:05:05;3.22;;;0.82;;
73951;SDS011;62304;47.662;18.324;2024-03-17T09:08:07;4.70;;;1.50;;
73951;SDS011;62304;47.662;18.324;2024-03-17T09:11:13;4.30;;;1.37;;
73951;SDS011;62304;47.662;18.324;2024-03-17T09:14:16;5.70;;;1.45;;
73951;SDS011;62304;47.662;18.324;2024-03-17T09:17:18;4.60;;;1.73;;
73951;SDS011;62304;47.662;18.324;2024-03-17T09:20:22;3.75;;;1.40;;
73951;SDS011;62304;47.662;18.324;2024-03-17T09:23:24;5.40;;;1.60;;
73951;SDS011;62304;47.662;18.324;2024-03-17T09:26:27;6.13;;;1.70;;
73951;SDS011;62304;47.662;18.324;2024-03-17T09:29:29;6.25;;;1.73;;
73951;SDS011;62304;47.662;18.324;2024-03-17T09:32:31;5.37;;;1.65;;
73951;SDS011;62304;47.662;18.324;2024-03-17T09:35:35;3.47;;;1.00;;
73951;SDS011;62304;47.662;18.324;2024-03-17T09:38:37;4.00;;;1.67;;
73951;SDS011;62304;47.662;18.324;2024-03-17T09:41:40;4.03;;;1.70;;
73951;SDS011;62304;47.662;18.324;2024-03-17T09:44:42;5.40;;;1.60;;
73951;SDS011;62304;47.662;18.324;2024-03-17T09:47:50;5.53;;;1.60;;
73951;SDS011;62304;47.662;18.324;2024-03-17T09:50:53;3.08;;;1.00;;
73951;SDS011;62304;47.662;18.324;2024-03-17T09:53:59;3.70;;;1.40;;
73951;SDS011;62304;47.662;18.324;2024-03-17T09:57:01;7.30;;;1.10;;
73951;SDS011;62304;47.662;18.324;2024-03-17T10:00:16;5.43;;;1.37;;
73951;SDS011;62304;47.662;18.324;2024-03-17T10:07:17;6.07;;;1.10;;
73951;SDS011;62304;47.662;18.324;2024-03-17T10:10:20;5.77;;;1.27;;
73951;SDS011;62304;47.662;18.324;2024-03-17T10:13:22;4.83;;;1.10;;
73951;SDS011;62304;47.662;18.324;2024-03-17T10:16:26;4.70;;;1.30;;
73951;SDS011;62304;47.662;18.324;2024-03-17T10:19:30;4.15;;;1.40;;
73951;SDS011;62304;47.662;18.324;2024-03-17T10:22:32;3.83;;;1.30;;
73951;SDS011;62304;47.662;18.324;2024-03-17T10:25:39;3.73;;;1.10;;
73951;SDS011;62304;47.662;18.324;2024-03-17T10:28:43;5.17;;;1.27;;
73951;SDS011;62304;47.662;18.324;2024-03-17T10:31:45;3.55;;;1.23;;
73951;SDS011;62304;47.662;18.324;2024-03-17T10:34:47;5.22;;;1.35;;
73951;SDS011;62304;47.662;18.324;2024-03-17T10:37:59;4.45;;;1.12;;
73951;SDS011;62304;47.662;18.324;2024-03-17T10:41:02;5.10;;;1.30;;
73951;SDS011;62304;47.662;18.324;2024-03-17T10:44:06;5.23;;;1.60;;
73951;SDS011;62304;47.662;18.324;2024-03-17T10:47:12;2.90;;;1.00;;
73951;SDS011;62304;47.662;18.324;2024-03-17T10:50:24;6.30;;;1.58;;
73951;SDS011;62304;47.662;18.324;2024-03-17T10:53:31;4.60;;;1.50;;
73951;SDS011;62304;47.662;18.324;2024-03-17T10:56:33;3.83;;;1.30;;
73951;SDS011;62304;47.662;18.324;2024-03-17T10:59:38;3.60;;;1.17;;
73951;SDS011;62304;47.662;18.324;2024-03-17T11:02:46;4.00;;;1.60;;
73951;SDS011;62304;47.662;18.324;2024-03-17T11:05:48;5.05;;;1.15;;
73951;SDS011;62304;47.662;18.324;2024-03-17T11:08:53;6.78;;;1.20;;
73951;SDS011;62304;47.662;18.324;2024-03-17T11:11:58;3.27;;;0.90;;
73951;SDS011;62304;47.662;18.324;2024-03-17T11:18:33;3.87;;;0.93;;
73951;SDS011;62304;47.662;18.324;2024-03-17T11:21:36;3.72;;;1.08;;
73951;SDS011;62304;47.662;18.324;2024-03-17T11:24:38;4.25;;;1.12;;
73951;SDS011;62304;47.662;18.324;2024-03-17T11:27:45;5.13;;;1.20;;
73951;SDS011;62304;47.662;18.324;2024-03-17T11:30:54;3.73;;;1.00;;
73951;SDS011;62304;47.662;18.324;2024-03-17T11:37:41;2.60;;;0.90;;
73951;SDS011;62304;47.662;18.324;2024-03-17T11:40:50;3.00;;;0.93;;
73951;SDS011;62304;47.662;18.324;2024-03-17T11:44:12;4.60;;;1.27;;
73951;SDS011;62304;47.662;18.324;2024-03-17T11:47:34;7.27;;;1.20;;
73951;SDS011;62304;47.662;18.324;2024-03-17T11:50:38;3.60;;;0.75;;
73951;SDS011;62304;47.662;18.324;2024-03-17T11:53:40;4.12;;;1.10;;
73951;SDS011;62304;47.662;18.324;2024-03-17T11:56:42;4.55;;;1.00;;
73951;SDS011;62304;47.662;18.324;2024-03-17T11:59:44;5.70;;;1.10;;
73951;SDS011;62304;47.662;18.324;2024-03-17T12:02:48;3.07;;;0.90;;
73951;SDS011;62304;47.662;18.324;2024-03-17T12:05:52;3.12;;;1.02;;
73951;SDS011;62304;47.662;18.324;2024-03-17T12:08:54;4.03;;;1.15;;
73951;SDS011;62304;47.662;18.324;2024-03-17T12:12:00;4.17;;;1.10;;
73951;SDS011;62304;47.662;18.324;2024-03-17T12:15:03;4.27;;;1.17;;
73951;SDS011;62304;47.662;18.324;2024-03-17T12:18:20;4.20;;;1.08;;
73951;SDS011;62304;47.662;18.324;2024-03-17T12:21:22;3.65;;;1.10;;
73951;SDS011;62304;47.662;18.324;2024-03-17T12:24:26;3.62;;;1.08;;
73951;SDS011;62304;47.662;18.324;2024-03-17T12:27:29;6.60;;;1.30;;
73951;SDS011;62304;47.662;18.324;2024-03-17T12:30:31;3.43;;;1.10;;
73951;SDS011;62304;47.662;18.324;2024-03-17T12:33:34;3.62;;;1.37;;
73951;SDS011;62304;47.662;18.324;2024-03-17T12:36:46;5.07;;;1.20;;
73951;SDS011;62304;47.662;18.324;2024-03-17T12:39:50;3.92;;;1.00;;
73951;SDS011;62304;47.662;18.324;2024-03-17T12:42:53;4.43;;;1.33;;
73951;SDS011;62304;47.662;18.324;2024-03-17T12:45:56;9.00;;;1.50;;
73951;SDS011;62304;47.662;18.324;2024-03-17T12:48:59;5.70;;;1.27;;
73951;SDS011;62304;47.662;18.324;2024-03-17T12:52:01;5.22;;;1.40;;
73951;SDS011;62304;47.662;18.324;2024-03-17T12:55:11;5.22;;;1.30;;
73951;SDS011;62304;47.662;18.324;2024-03-17T12:58:38;5.50;;;1.50;;
73951;SDS011;62304;47.662;18.324;2024-03-17T13:02:01;3.57;;;1.17;;
73951;SDS011;62304;47.662;18.324;2024-03-17T13:08:22;4.53;;;1.73;;
73951;SDS011;62304;47.662;18.324;2024-03-17T13:11:24;5.10;;;1.40;;
73951;SDS011;62304;47.662;18.324;2024-03-17T13:14:27;4.73;;;1.17;;
73951;SDS011;62304;47.662;18.324;2024-03-17T13:17:29;4.87;;;1.27;;
73951;SDS011;62304;47.662;18.324;2024-03-17T13:20:35;4.18;;;1.30;;
73951;SDS011;62304;47.662;18.324;2024-03-17T13:23:37;7.18;;;1.48;;
73951;SDS011;62304;47.662;18.324;2024-03-17T13:26:39;4.18;;;1.20;;
73951;SDS011;62304;47.662;18.324;2024-03-17T13:29:41;4.00;;;1.13;;
73951;SDS011;62304;47.662;18.324;2024-03-17T13:32:48;5.63;;;1.40;;
73951;SDS011;62304;47.662;18.324;2024-03-17T13:35:52;3.67;;;1.17;;
73951;SDS011;62304;47.662;18.324;2024-03-17T13:38:54;3.30;;;1.12;;
73951;SDS011;62304;47.662;18.324;2024-03-17T13:41:57;4.45;;;1.50;;
73951;SDS011;62304;47.662;18.324;2024-03-17T13:45:07;3.97;;;1.50;;
73951;SDS011;62304;47.662;18.324;2024-03-17T13:48:17;4.10;;;1.37;;
73951;SDS011;62304;47.662;18.324;2024-03-17T13:51:20;4.70;;;1.52;;
73951;SDS011;62304;47.662;18.324;2024-03-17T13:54:21;4.25;;;1.40;;
73951;SDS011;62304;47.662;18.324;2024-03-17T13:57:24;6.70;;;1.55;;
73951;SDS011;62304;47.662;18.324;2024-03-17T14:00:27;5.43;;;1.90;;
73951;SDS011;62304;47.662;18.324;2024-03-17T14:03:32;3.67;;;1.10;;
73951;SDS011;62304;47.662;18.324;2024-03-17T14:06:34;6.00;;;1.42;;
73951;SDS011;62304;47.662;18.324;2024-03-17T14:09:36;4.68;;;1.50;;
73951;SDS011;62304;47.662;18.324;2024-03-17T14:12:39;7.70;;;1.70;;
73951;SDS011;62304;47.662;18.324;2024-03-17T14:15:42;6.20;;;1.57;;
73951;SDS011;62304;47.662;18.324;2024-03-17T14:18:45;7.57;;;2.07;;
73951;SDS011;62304;47.662;18.324;2024-03-17T14:21:47;4.55;;;2.00;;
73951;SDS011;62304;47.662;18.324;2024-03-17T14:24:49;5.22;;;1.50;;
73951;SDS011;62304;47.662;18.324;2024-03-17T14:27:52;5.15;;;1.73;;
73951;SDS011;62304;47.662;18.324;2024-03-17T14:30:54;4.67;;;1.23;;
73951;SDS011;62304;47.662;18.324;2024-03-17T14:33:56;3.63;;;1.30;;
73951;SDS011;62304;47.662;18.324;2024-03-17T14:37:00;7.65;;;2.22;;
73951;SDS011;62304;47.662;18.324;2024-03-17T14:40:06;4.45;;;1.58;;
73951;SDS011;62304;47.662;18.324;2024-03-17T14:43:18;7.53;;;1.80;;
73951;SDS011;62304;47.662;18.324;2024-03-17T14:46:21;4.10;;;1.77;;
73951;SDS011;62304;47.662;18.324;2024-03-17T14:49:23;9.37;;;3.33;;
73951;SDS011;62304;47.662;18.324;2024-03-17T14:52:26;8.23;;;3.20;;
73951;SDS011;62304;47.662;18.324;2024-03-17T14:55:28;4.97;;;1.75;;
73951;SDS011;62304;47.662;18.324;2024-03-17T14:58:30;3.45;;;1.45;;
73951;SDS011;62304;47.662;18.324;2024-03-17T15:01:33;4.90;;;1.60;;
73951;SDS011;62304;47.662;18.324;2024-03-17T15:04:35;8.50;;;2.30;;
73951;SDS011;62304;47.662;18.324;2024-03-17T15:07:39;8.48;;;3.60;;
73951;SDS011;62304;47.662;18.324;2024-03-17T15:10:51;4.62;;;1.85;;
73951;SDS011;62304;47.662;18.324;2024-03-17T15:13:55;6.62;;;1.73;;
73951;SDS011;62304;47.662;18.324;2024-03-17T15:16:58;4.17;;;1.80;;
73951;SDS011;62304;47.662;18.324;2024-03-17T15:20:01;7.47;;;1.80;;
73951;SDS011;62304;47.662;18.324;2024-03-17T15:23:03;4.53;;;1.65;;
73951;SDS011;62304;47.662;18.324;2024-03-17T15:26:07;5.72;;;2.00;;
73951;SDS011;62304;47.662;18.324;2024-03-17T15:29:11;3.87;;;1.70;;
73951;SDS011;62304;47.662;18.324;2024-03-17T15:32:13;4.93;;;1.90;;
73951;SDS011;62304;47.662;18.324;2024-03-17T15:35:15;5.67;;;1.60;;
73951;SDS011;62304;47.662;18.324;2024-03-17T15:38:17;4.32;;;1.50;;
73951;SDS011;62304;47.662;18.324;2024-03-17T15:41:20;5.93;;;1.70;;
73951;SDS011;62304;47.662;18.324;2024-03-17T15:44:22;4.40;;;1.60;;
73951;SDS011;62304;47.662;18.324;2024-03-17T15:47:24;7.33;;;2.17;;
73951;SDS011;62304;47.662;18.324;2024-03-17T15:50:26;6.67;;;1.80;;
73951;SDS011;62304;47.662;18.324;2024-03-17T15:53:29;8.07;;;2.20;;
73951;SDS011;62304;47.662;18.324;2024-03-17T15:56:31;6.78;;;2.25;;
73951;SDS011;62304;47.662;18.324;2024-03-17T15:59:33;5.60;;;1.77;;
73951;SDS011;62304;47.662;18.324;2024-03-17T16:02:37;4.70;;;1.70;;
73951;SDS011;62304;47.662;18.324;2024-03-17T16:05:41;5.97;;;2.70;;
73951;SDS011;62304;47.662;18.324;2024-03-17T16:08:46;6.68;;;1.98;;
73951;SDS011;62304;47.662;18.324;2024-03-17T16:11:50;6.25;;;2.20;;
73951;SDS011;62304;47.662;18.324;2024-03-17T16:14:52;5.28;;;1.77;;
73951;SDS011;62304;47.662;18.324;2024-03-17T16:17:54;4.57;;;2.17;;
73951;SDS011;62304;47.662;18.324;2024-03-17T16:20:57;8.37;;;2.07;;
73951;SDS011;62304;47.662;18.324;2024-03-17T16:24:13;5.65;;;1.85;;
73951;SDS011;62304;47.662;18.324;2024-03-17T16:27:16;6.62;;;2.40;;
73951;SDS011;62304;47.662;18.324;2024-03-17T16:30:18;6.70;;;2.85;;
73951;SDS011;62304;47.662;18.324;2024-03-17T16:33:22;5.57;;;2.70;;
73951;SDS011;62304;47.662;18.324;2024-03-17T16:36:25;6.47;;;2.37;;
73951;SDS011;62304;47.662;18.324;2024-03-17T16:39:27;9.27;;;2.70;;
73951;SDS011;62304;47.662;18.324;2024-03-17T16:42:32;5.47;;;2.30;;
73951;SDS011;62304;47.662;18.324;2024-03-17T16:45:34;5.55;;;2.20;;
73951;SDS011;62304;47.662;18.324;2024-03-17T16:48:45;7.10;;;2.80;;
73951;SDS011;62304;47.662;18.324;2024-03-17T16:51:47;15.00;;;6.10;;
73951;SDS011;62304;47.662;18.324;2024-03-17T16:54:58;20.65;;;8.18;;
73951;SDS011;62304;47.662;18.324;2024-03-17T16:58:01;16.50;;;7.30;;
73951;SDS011;62304;47.662;18.324;2024-03-17T17:01:04;18.10;;;7.40;;
73951;SDS011;62304;47.662;18.324;2024-03-17T17:04:07;14.03;;;5.93;;
73951;SDS011;62304;47.662;18.324;2024-03-17T17:07:13;7.97;;;3.50;;
73951;SDS011;62304;47.662;18.324;2024-03-17T17:10:15;5.53;;;2.35;;
73951;SDS011;62304;47.662;18.324;2024-03-17T17:13:18;8.43;;;2.42;;
73951;SDS011;62304;47.662;18.324;2024-03-17T17:16:20;8.73;;;2.58;;
73951;SDS011;62304;47.662;18.324;2024-03-17T17:19:22;8.03;;;2.90;;
73951;SDS011;62304;47.662;18.324;2024-03-17T17:22:25;6.27;;;2.40;;
73951;SDS011;62304;47.662;18.324;2024-03-17T17:25:28;5.12;;;2.12;;
73951;SDS011;62304;47.662;18.324;2024-03-17T17:28:31;7.53;;;2.20;;
73951;SDS011;62304;47.662;18.324;2024-03-17T17:31:33;6.65;;;2.53;;
73951;SDS011;62304;47.662;18.324;2024-03-17T17:34:36;10.07;;;3.30;;
73951;SDS011;62304;47.662;18.324;2024-03-17T17:37:39;10.57;;;4.23;;
73951;SDS011;62304;47.662;18.324;2024-03-17T17:40:41;13.02;;;5.20;;
73951;SDS011;62304;47.662;18.324;2024-03-17T17:43:44;10.52;;;4.70;;
73951;SDS011;62304;47.662;18.324;2024-03-17T17:46:48;10.27;;;4.18;;
73951;SDS011;62304;47.662;18.324;2024-03-17T17:49:50;9.23;;;3.60;;
73951;SDS011;62304;47.662;18.324;2024-03-17T17:52:52;11.13;;;3.53;;
73951;SDS011;62304;47.662;18.324;2024-03-17T17:55:54;9.52;;;3.78;;
73951;SDS011;62304;47.662;18.324;2024-03-17T17:58:58;10.35;;;4.18;;
73951;SDS011;62304;47.662;18.324;2024-03-17T18:02:00;11.10;;;4.10;;
73951;SDS011;62304;47.662;18.324;2024-03-17T18:05:03;11.10;;;4.63;;
73951;SDS011;62304;47.662;18.324;2024-03-17T18:08:07;10.20;;;5.07;;
73951;SDS011;62304;47.662;18.324;2024-03-17T18:11:14;12.13;;;5.18;;
73951;SDS011;62304;47.662;18.324;2024-03-17T18:14:20;14.35;;;6.43;;
73951;SDS011;62304;47.662;18.324;2024-03-17T18:17:26;14.07;;;6.28;;
73951;SDS011;62304;47.662;18.324;2024-03-17T18:20:28;14.37;;;4.70;;
73951;SDS011;62304;47.662;18.324;2024-03-17T18:23:34;8.83;;;3.63;;